Terminal Aerodrome Forecast
Issued by NWS Charleston, WV

Current Version | Previous Version | Graphics & Text | Print | Product List | Glossary On
Versions: 1 2 3 4 5 6 7 8 9 10 11 12 13 14 15 16 17 18 19 20 21 22 23 24
060
FTUS41 KRLX 170222 AAA
TAFCRW
TAF AMD
KCRW 170222Z 1702/1724 VRB04KT 6SM -SN SCT010 OVC016
     FM170500 31005KT P6SM OVC023
     FM171900 28005KT P6SM SCT026=

USA.gov is the U.S. government's official web portal to all federal, state and local government web resources and services.